This is the latest recevied weather packets stored in our database for station/object KB1YTR-1. If no packets are shown the sender has not sent any weather packets the latest 10 day(s).
| Time | Temp. | Humidity | Pressure | Rain* | Wind** | Luminosity | Snow |
|---|---|---|---|---|---|---|---|
| 1787962415 | 17.22° C | 82% | 1016.6 hPa | 0 mm | - | - | - |
| 1787961660 | 17.22° C | 82% | 1016.6 hPa | 0 mm | - | - | - |
| 1787960850 | 17.78° C | 81% | 1017 hPa | 0 mm | - | - | - |
| 1787960055 | 18.33° C | 79% | 1017.1 hPa | 0 mm | - | - | - |
| 1787959280 | 18.33° C | 81% | 1017.1 hPa | 0 mm | - | - | - |
| 1787958550 | 18.89° C | 80% | 1017.2 hPa | 0 mm | - | - | - |
| 1787957729 | 20° C | 78% | 1017 hPa | 0 mm | - | - | - |
| 1787956925 | 20° C | 78% | 1017 hPa | 0 mm | - | - | - |
| 1787956171 | 20.56° C | 71% | 1017.4 hPa | 0 mm | - | - | - |
| 1787955313 | 20° C | 69% | 1017.4 hPa | 0 mm | - | - | - |
| 1787954440 | 21.11° C | 65% | 1017.8 hPa | 0 mm | - | - | - |
| 1787953691 | 20.56° C | 67% | 1017.6 hPa | 0 mm | - | - | - |
| 1787952795 | 20° C | 65% | 1017.5 hPa | 0 mm | - | - | - |
| 1787952065 | 20° C | 64% | 1017.8 hPa | 0 mm | - | - | - |
| 1787951247 | 20° C | 64% | 1017.9 hPa | 0 mm | - | - | - |
| 1787950520 | 20.56° C | 65% | 1018 hPa | 0 mm | - | - | - |
| 1787949700 | 20.56° C | 63% | 1018.3 hPa | 0 mm | - | - | - |
| 1787948823 | 21.67° C | 61% | 1018.4 hPa | 0 mm | - | - | - |
| 1787948000 | 20.56° C | 63% | 1018.1 hPa | 0 mm | - | - | - |
| 1787947276 | 20.56° C | 62% | 1018.7 hPa | 0 mm | - | - | - |
| 1787946460 | 21.11° C | 60% | 1018.8 hPa | 0 mm | - | - | - |
| 1787945715 | 20° C | 63% | 1018.9 hPa | 0 mm | - | - | - |
| 1787944935 | 20° C | 63% | 1018.8 hPa | 0 mm | - | - | - |
| 1787944152 | 19.44° C | 64% | 1018.8 hPa | 0 mm | - | - | - |
| 1787943390 | 20° C | 64% | 1019 hPa | 0 mm | - | - | - |
* Rain latest hour (hover to see other rain measurements)
** Current wind speed in m/s (hover to see current wind gust speed)